createdAt,value
2018-11-25T00:01:38.886Z,22.27
2018-11-25T00:04:09.951Z,24.47
2018-11-25T00:06:40.874Z,26.97
2018-11-25T00:09:11.871Z,27.53
2018-11-25T00:11:42.766Z,27.17
2018-11-25T00:14:13.898Z,29.90
2018-11-25T00:16:44.773Z,28.00
2018-11-25T00:19:15.737Z,20.37
2018-11-25T00:21:47.340Z,26.77
2018-11-25T00:24:18.336Z,26.40
2018-11-25T00:26:49.355Z,21.23
2018-11-25T00:29:20.501Z,24.10
2018-11-25T00:31:51.550Z,22.57
2018-11-25T00:34:22.527Z,19.90
2018-11-25T00:36:53.551Z,19.90
2018-11-25T00:39:24.498Z,16.50
2018-11-25T00:41:55.415Z,21.97
2018-11-25T00:44:26.249Z,16.80
2018-11-25T00:46:57.298Z,15.57
2018-11-25T00:49:28.272Z,15.57
2018-11-25T00:51:59.309Z,16.27
2018-11-25T00:54:30.237Z,17.60
2018-11-25T00:57:01.293Z,17.07
2018-11-25T00:59:32.308Z,13.80
2018-11-25T01:02:03.462Z,14.30
2018-11-25T01:04:34.728Z,13.93
2018-11-25T01:07:06.179Z,15.23
2018-11-25T01:09:37.595Z,19.03
2018-11-25T01:12:08.822Z,15.73
2018-11-25T01:14:39.784Z,16.53
2018-11-25T01:17:10.627Z,19.83
2018-11-25T01:19:41.466Z,15.33
2018-11-25T01:22:12.390Z,15.13
2018-11-25T01:24:43.436Z,20.63
2018-11-25T01:27:14.461Z,16.47
2018-11-25T01:29:45.372Z,20.50
2018-11-25T01:32:16.573Z,20.97
2018-11-25T01:34:47.897Z,21.87
2018-11-25T01:37:18.873Z,22.97
2018-11-25T01:39:49.894Z,21.47
2018-11-25T01:42:22.276Z,19.67
2018-11-25T01:44:53.124Z,19.93
2018-11-25T01:47:24.758Z,22.10
2018-11-25T01:49:55.711Z,17.87
2018-11-25T01:52:26.841Z,22.80
2018-11-25T01:54:57.871Z,18.13
2018-11-25T01:57:28.997Z,20.10
2018-11-25T01:59:59.851Z,18.97
2018-11-25T02:02:30.885Z,19.00
2018-11-25T02:05:02.928Z,19.47
2018-11-25T02:07:33.844Z,20.53
2018-11-25T02:10:06.372Z,22.07
2018-11-25T02:12:37.182Z,21.87
2018-11-25T02:15:10.305Z,21.27
2018-11-25T02:17:41.407Z,22.47
2018-11-25T02:20:25.659Z,22.30
2018-11-25T02:22:57.571Z,19.23
2018-11-25T02:25:28.595Z,22.93
2018-11-25T02:27:59.509Z,22.47
2018-11-25T02:30:30.625Z,23.03
2018-11-25T02:33:01.483Z,23.53
2018-11-25T02:35:32.499Z,24.93
2018-11-25T02:38:03.724Z,26.50
2018-11-25T02:40:34.563Z,21.17
2018-11-25T02:43:05.616Z,24.80
2018-11-25T02:45:36.557Z,26.87
2018-11-25T02:48:07.688Z,23.00
2018-11-25T02:50:38.712Z,25.40
2018-11-25T02:53:19.863Z,28.23
2018-11-25T02:55:50.904Z,28.70
2018-11-25T02:58:22.033Z,29.03
2018-11-25T03:00:53.080Z,25.80
2018-11-25T03:03:24.111Z,28.13
2018-11-25T03:05:54.969Z,25.90
2018-11-25T03:08:25.997Z,29.10
2018-11-25T03:10:56.950Z,29.30
2018-11-25T03:13:28.365Z,26.80
2018-11-25T03:15:59.302Z,27.90
2018-11-25T03:18:30.165Z,29.37
2018-11-25T03:21:01.243Z,29.43
2018-11-25T03:23:32.194Z,26.60
2018-11-25T03:26:03.162Z,25.57
2018-11-25T03:28:34.355Z,28.23
2018-11-25T03:31:05.623Z,30.53
2018-11-25T03:33:36.555Z,26.40
2018-11-25T03:36:07.651Z,24.63
2018-11-25T03:38:38.891Z,28.70
2018-11-25T03:41:09.923Z,28.43
2018-11-25T03:43:40.847Z,30.47
2018-11-25T03:46:11.694Z,26.10
2018-11-25T03:48:42.527Z,27.93
2018-11-25T03:51:13.401Z,27.00
2018-11-25T03:53:44.670Z,28.73
2018-11-25T03:56:15.784Z,24.73
2018-11-25T03:58:46.884Z,30.03
2018-11-25T04:01:17.810Z,27.50
2018-11-25T04:03:48.811Z,26.73
2018-11-25T04:06:19.917Z,25.90
2018-11-25T04:08:51.038Z,27.17
2018-11-25T04:11:21.886Z,31.87
2018-11-25T04:13:53.013Z,33.27
2018-11-25T04:16:24.059Z,32.20
2018-11-25T04:18:54.887Z,29.17
2018-11-25T04:21:25.845Z,27.67
2018-11-25T04:23:57.163Z,28.07
2018-11-25T04:26:28.108Z,35.23
2018-11-25T04:28:59.152Z,34.77
2018-11-25T04:31:30.111Z,29.40
2018-11-25T04:34:01.019Z,31.33
2018-11-25T04:36:32.002Z,25.83
2018-11-25T04:39:02.936Z,27.73
2018-11-25T04:41:33.792Z,29.20
2018-11-25T04:44:05.080Z,31.83
2018-11-25T04:46:36.028Z,30.40
2018-11-25T04:49:07.543Z,33.40
2018-11-25T04:51:38.502Z,27.80
2018-11-25T04:54:09.386Z,30.87
2018-11-25T04:56:40.658Z,28.53
2018-11-25T04:59:11.613Z,33.33
2018-11-25T05:01:42.907Z,30.60
2018-11-25T05:04:14.159Z,32.73
2018-11-25T05:06:45.434Z,29.33
2018-11-25T05:09:16.300Z,31.60
2018-11-25T05:11:47.266Z,28.07
2018-11-25T05:14:18.398Z,29.47
2018-11-25T05:16:49.520Z,29.97
2018-11-25T05:19:20.449Z,28.17
2018-11-25T05:21:51.606Z,33.13
2018-11-25T05:24:22.501Z,34.20
2018-11-25T05:26:53.475Z,32.50
2018-11-25T05:29:24.413Z,29.93
2018-11-25T05:31:55.376Z,31.40
2018-11-25T05:34:26.521Z,33.40
2018-11-25T05:36:57.471Z,32.63
2018-11-25T05:39:28.782Z,31.33
2018-11-25T05:41:59.981Z,29.87
2018-11-25T05:44:31.193Z,31.67
2018-11-25T05:47:02.349Z,34.43
2018-11-25T05:49:36.828Z,34.37
2018-11-25T05:52:05.257Z,32.27
2018-11-25T05:54:36.245Z,33.40
2018-11-25T05:57:07.302Z,30.90
2018-11-25T05:59:38.939Z,31.27
2018-11-25T06:02:09.981Z,30.50
2018-11-25T06:04:40.938Z,29.53
2018-11-25T06:07:11.977Z,33.97
2018-11-25T06:09:42.981Z,32.43
2018-11-25T06:12:13.928Z,32.07
2018-11-25T06:14:45.232Z,33.77
2018-11-25T06:17:16.444Z,31.93
2018-11-25T06:19:47.287Z,34.43
2018-11-25T06:22:18.459Z,37.53
2018-11-25T06:24:49.394Z,38.57
2018-11-25T06:27:20.400Z,40.47
2018-11-25T06:29:51.337Z,38.53
2018-11-25T06:32:22.176Z,40.80
2018-11-25T06:34:53.243Z,42.40
2018-11-25T06:37:24.155Z,42.20
2018-11-25T06:39:55.307Z,41.83
2018-11-25T06:42:26.385Z,38.17
2018-11-25T06:44:57.666Z,37.90
2018-11-25T06:47:28.748Z,40.97
2018-11-25T06:49:59.628Z,41.53
2018-11-25T06:52:30.754Z,41.83
2018-11-25T06:55:01.690Z,39.57
2018-11-25T06:57:32.629Z,34.10
2018-11-25T07:00:03.854Z,33.90
2018-11-25T07:02:34.805Z,32.87
2018-11-25T07:05:06.045Z,33.83
2018-11-25T07:07:37.120Z,33.00
2018-11-25T07:10:22.516Z,25.07
2018-11-25T07:12:54.931Z,34.00
2018-11-25T07:15:26.890Z,30.77
2018-11-25T07:17:57.752Z,29.07
2018-11-25T07:20:28.797Z,31.07
2018-11-25T07:22:59.703Z,28.10
2018-11-25T07:25:30.573Z,23.43
2018-11-25T07:28:17.685Z,30.63
2018-11-25T07:30:33.499Z,28.27
2018-11-25T07:33:04.549Z,30.07
2018-11-25T07:35:35.616Z,29.53
2018-11-25T07:38:07.297Z,30.10
2018-11-25T07:40:38.418Z,30.47
2018-11-25T07:43:09.523Z,28.87
2018-11-25T07:45:40.410Z,29.87
2018-11-25T07:48:11.401Z,30.77
2018-11-25T07:50:42.355Z,29.93
2018-11-25T07:53:13.287Z,28.20
2018-11-25T07:55:44.254Z,30.53
2018-11-25T07:58:15.911Z,30.73
2018-11-25T08:00:46.893Z,32.17
2018-11-25T08:03:17.820Z,30.83
2018-11-25T08:05:49.382Z,32.43
2018-11-25T08:08:20.232Z,30.33
2018-11-25T08:10:51.206Z,36.40
2018-11-25T08:13:22.298Z,33.10
2018-11-25T08:15:53.446Z,34.03
2018-11-25T08:18:24.393Z,29.50
2018-11-25T08:20:55.255Z,38.03
2018-11-25T08:23:26.354Z,35.60
2018-11-25T08:25:57.893Z,38.73
2018-11-25T08:28:29.190Z,30.63
2018-11-25T08:31:00.164Z,37.70
2018-11-25T08:33:31.156Z,32.87
2018-11-25T08:36:02.206Z,29.03
2018-11-25T08:38:33.322Z,34.87
2018-11-25T08:41:04.385Z,35.30
2018-11-25T08:43:35.342Z,33.73
2018-11-25T08:46:06.594Z,30.83
2018-11-25T08:48:37.453Z,34.67
2018-11-25T08:51:08.883Z,34.43
2018-11-25T08:53:39.847Z,34.33
2018-11-25T08:56:10.797Z,34.53
2018-11-25T08:58:41.657Z,35.83
2018-11-25T09:01:12.768Z,34.37
2018-11-25T09:03:43.617Z,35.00
2018-11-25T09:06:14.494Z,35.47
2018-11-25T09:08:45.433Z,34.20
2018-11-25T09:11:16.380Z,35.07
2018-11-25T09:13:47.347Z,36.30
2018-11-25T09:16:18.384Z,34.63
2018-11-25T09:18:49.339Z,34.87
2018-11-25T09:21:20.221Z,33.63
2018-11-25T09:23:51.327Z,35.37
2018-11-25T09:26:22.328Z,34.93
2018-11-25T09:28:53.288Z,37.53
2018-11-25T09:31:24.333Z,36.37
2018-11-25T09:33:55.185Z,33.83
2018-11-25T09:36:26.727Z,32.30
2018-11-25T09:38:57.767Z,34.03
2018-11-25T09:41:28.869Z,34.73
2018-11-25T09:43:59.822Z,31.70
2018-11-25T09:46:31.064Z,35.27
2018-11-25T09:49:01.935Z,32.57
2018-11-25T09:51:33.058Z,35.13
2018-11-25T09:54:04.006Z,34.97
2018-11-25T09:56:35.073Z,32.60
2018-11-25T09:59:06.753Z,33.37
2018-11-25T10:01:37.904Z,29.10
2018-11-25T10:04:09.112Z,26.53
2018-11-25T10:06:40.210Z,27.53
2018-11-25T10:09:11.703Z,27.10
2018-11-25T10:11:42.842Z,27.33
2018-11-25T10:14:13.787Z,28.33
2018-11-25T10:16:44.848Z,26.43
2018-11-25T10:19:15.861Z,27.70
2018-11-25T10:21:46.907Z,26.87
2018-11-25T10:24:18.439Z,25.30
2018-11-25T10:26:49.541Z,23.80
2018-11-25T10:29:20.392Z,25.30
2018-11-25T10:31:51.502Z,25.67
2018-11-25T10:34:22.442Z,24.47
2018-11-25T10:36:53.658Z,27.10
2018-11-25T10:39:24.806Z,25.20
2018-11-25T10:41:55.799Z,26.60
2018-11-25T10:44:26.657Z,25.33
2018-11-25T10:46:57.773Z,26.57
2018-11-25T10:49:28.717Z,26.93
2018-11-25T10:52:00.061Z,27.27
2018-11-25T10:54:31.056Z,27.33
2018-11-25T10:57:02.201Z,27.80
2018-11-25T10:59:33.315Z,28.17
2018-11-25T11:02:21.590Z,27.77
2018-11-25T11:05:07.656Z,26.90
2018-11-25T11:07:47.718Z,27.30
2018-11-25T11:10:18.909Z,29.57
2018-11-25T11:12:50.003Z,28.80
2018-11-25T11:15:21.050Z,29.93
2018-11-25T11:17:52.363Z,29.80
2018-11-25T11:20:23.568Z,28.40
2018-11-25T11:22:54.613Z,27.93
2018-11-25T11:25:25.594Z,26.37
2018-11-25T11:27:56.539Z,24.40
2018-11-25T11:30:27.607Z,22.50
2018-11-25T11:32:58.543Z,22.10
2018-11-25T11:35:29.541Z,21.87
2018-11-25T11:38:00.769Z,21.07
2018-11-25T11:40:31.955Z,22.97
2018-11-25T11:43:02.919Z,23.10
2018-11-25T11:45:33.844Z,22.67
2018-11-25T11:48:04.977Z,23.97
2018-11-25T11:50:36.037Z,25.37
2018-11-25T11:53:07.914Z,23.20
2018-11-25T11:55:38.930Z,20.77
2018-11-25T11:58:09.947Z,20.27
2018-11-25T12:00:41.026Z,19.80
2018-11-25T12:03:12.072Z,20.53
2018-11-25T12:05:43.178Z,22.90
2018-11-25T12:08:14.088Z,22.03
2018-11-25T12:10:45.287Z,22.40
2018-11-25T12:13:16.150Z,23.00
2018-11-25T12:15:47.254Z,22.60
2018-11-25T12:18:18.344Z,24.27
2018-11-25T12:20:49.337Z,23.37
2018-11-25T12:23:20.495Z,22.53
2018-11-25T12:25:51.591Z,22.37
2018-11-25T12:28:22.759Z,20.70
2018-11-25T12:30:53.749Z,19.67
2018-11-25T12:33:24.894Z,19.00
2018-11-25T12:35:56.063Z,20.83
2018-11-25T12:38:27.130Z,19.13
2018-11-25T12:40:58.180Z,18.97
2018-11-25T12:43:29.374Z,18.00
2018-11-25T12:46:00.421Z,17.10
2018-11-25T12:48:31.582Z,18.10
2018-11-25T12:51:02.593Z,17.97
2018-11-25T12:53:33.998Z,18.53
2018-11-25T12:56:05.204Z,17.07
2018-11-25T12:58:36.358Z,17.77
2018-11-25T13:01:07.470Z,17.73
2018-11-25T13:03:38.619Z,17.07
2018-11-25T13:06:09.861Z,16.93
2018-11-25T13:08:40.953Z,16.70
2018-11-25T13:11:11.984Z,16.30
2018-11-25T13:13:43.005Z,17.27
2018-11-25T13:16:14.030Z,17.40
2018-11-25T13:18:45.037Z,17.10
2018-11-25T13:21:16.318Z,15.63
2018-11-25T13:23:47.532Z,16.53
2018-11-25T13:26:18.712Z,16.03
2018-11-25T13:28:50.132Z,17.40
2018-11-25T13:31:21.126Z,15.97
2018-11-25T13:33:52.218Z,14.90
2018-11-25T13:36:23.102Z,15.77
2018-11-25T13:38:54.238Z,14.17
2018-11-25T13:41:25.409Z,14.27
2018-11-25T13:43:56.346Z,12.20
2018-11-25T13:46:27.470Z,13.50
2018-11-25T13:48:58.858Z,13.90
2018-11-25T13:51:30.147Z,13.77
2018-11-25T13:54:02.120Z,13.43
2018-11-25T13:56:33.471Z,13.43
2018-11-25T13:59:04.602Z,14.67
2018-11-25T14:01:35.880Z,14.40
2018-11-25T14:04:07.345Z,14.30
2018-11-25T14:06:38.828Z,14.77
2018-11-25T14:09:16.880Z,14.10
2018-11-25T14:11:48.258Z,15.30
2018-11-25T14:14:19.684Z,15.70
2018-11-25T14:16:50.757Z,14.13
2018-11-25T14:19:21.815Z,14.50
2018-11-25T14:21:52.741Z,13.27
2018-11-25T14:24:24.153Z,13.30
2018-11-25T14:27:02.957Z,13.07
2018-11-25T14:29:34.113Z,13.87
2018-11-25T14:32:05.412Z,14.43
2018-11-25T14:34:36.414Z,13.40
2018-11-25T14:37:07.836Z,13.37
2018-11-25T14:39:39.150Z,12.77
2018-11-25T14:42:10.262Z,12.37
2018-11-25T14:44:41.510Z,12.17
2018-11-25T14:47:12.480Z,11.47
2018-11-25T14:49:43.880Z,11.13
2018-11-25T14:52:15.034Z,11.87
2018-11-25T14:54:51.176Z,11.17
2018-11-25T14:57:18.565Z,10.67
2018-11-25T14:59:50.104Z,9.80
2018-11-25T15:02:21.253Z,10.53
2018-11-25T15:04:52.656Z,9.27
2018-11-25T15:07:24.130Z,9.50
2018-11-25T15:09:55.349Z,9.97
2018-11-25T15:12:26.672Z,9.73
2018-11-25T15:14:57.869Z,8.90
2018-11-25T15:17:28.915Z,8.87
2018-11-25T15:19:59.976Z,8.87
2018-11-25T15:22:31.423Z,9.43
2018-11-25T15:25:02.645Z,10.07
2018-11-25T15:27:33.821Z,9.40
2018-11-25T15:30:05.080Z,10.57
2018-11-25T15:32:36.483Z,10.13
2018-11-25T15:35:09.945Z,10.33
2018-11-25T15:37:43.357Z,10.00
2018-11-25T15:40:34.500Z,10.53
2018-11-25T15:43:05.814Z,11.17
2018-11-25T15:45:36.991Z,9.77
2018-11-25T15:48:28.689Z,10.50
2018-11-25T15:50:59.908Z,10.80
2018-11-25T15:53:31.130Z,10.97
2018-11-25T15:56:09.533Z,11.20
2018-11-25T15:58:40.582Z,10.67
2018-11-25T16:01:11.828Z,10.73
2018-11-25T16:03:42.939Z,11.00
2018-11-25T16:06:37.709Z,10.23
2018-11-25T16:09:10.532Z,11.13
2018-11-25T16:11:41.636Z,10.90
2018-11-25T16:14:13.240Z,11.27
2018-11-25T16:16:44.603Z,10.77
2018-11-25T16:19:15.591Z,10.43
2018-11-25T16:21:46.807Z,11.60
2018-11-25T16:24:18.226Z,11.30
2018-11-25T16:26:49.474Z,11.23
2018-11-25T16:29:28.967Z,10.27
2018-11-25T16:32:00.051Z,10.73
2018-11-25T16:34:31.404Z,9.53
2018-11-25T16:37:02.829Z,9.83
2018-11-25T16:39:33.955Z,9.83
2018-11-25T16:42:05.201Z,9.37
2018-11-25T16:44:36.347Z,9.10
2018-11-25T16:47:07.685Z,9.77
2018-11-25T16:49:39.094Z,9.40
2018-11-25T16:52:10.305Z,9.53
2018-11-25T16:54:41.432Z,9.67
2018-11-25T16:57:12.679Z,9.33
2018-11-25T16:59:44.040Z,8.93
2018-11-25T17:02:15.140Z,9.43
2018-11-25T17:04:46.715Z,8.73
2018-11-25T17:07:18.217Z,8.97
2018-11-25T17:09:49.299Z,8.87
2018-11-25T17:12:20.853Z,9.10
2018-11-25T17:14:51.942Z,9.43
2018-11-25T17:17:23.379Z,9.40
2018-11-25T17:19:54.481Z,9.87
2018-11-25T17:22:25.985Z,9.97
2018-11-25T17:24:57.376Z,9.87
2018-11-25T17:27:28.720Z,9.90
2018-11-25T17:30:00.127Z,10.20
2018-11-25T17:32:31.373Z,10.50
2018-11-25T17:35:02.385Z,9.93
2018-11-25T17:37:33.481Z,10.17
2018-11-25T17:40:04.721Z,10.67
2018-11-25T17:42:36.603Z,10.90
2018-11-25T17:45:12.221Z,11.17
2018-11-25T17:47:44.209Z,10.87
2018-11-25T17:50:31.489Z,11.33
2018-11-25T17:53:02.923Z,11.53
2018-11-25T17:55:34.514Z,11.33
2018-11-25T17:58:05.809Z,11.70
2018-11-25T18:00:51.363Z,10.37
2018-11-25T18:03:27.293Z,11.60
2018-11-25T18:05:58.412Z,11.03
2018-11-25T18:08:29.689Z,10.80
2018-11-25T18:11:00.727Z,11.40
2018-11-25T18:13:34.655Z,11.13
2018-11-25T18:16:08.302Z,11.13
2018-11-25T18:19:09.261Z,11.03
2018-11-25T18:21:40.139Z,10.87
2018-11-25T18:24:11.088Z,11.53
2018-11-25T18:26:42.035Z,10.63
2018-11-25T18:29:12.975Z,10.53
2018-11-25T18:31:43.931Z,10.60
2018-11-25T18:34:15.131Z,11.23
2018-11-25T18:36:46.337Z,10.30
2018-11-25T18:39:17.350Z,10.20
2018-11-25T18:41:48.491Z,10.03
2018-11-25T18:44:19.433Z,9.63
2018-11-25T18:46:50.383Z,10.17
2018-11-25T18:49:21.413Z,10.30
2018-11-25T18:51:52.861Z,10.27
2018-11-25T18:54:23.806Z,10.50
2018-11-25T18:56:54.746Z,10.63
2018-11-25T18:59:27.471Z,9.33
2018-11-25T19:02:06.600Z,10.43
2018-11-25T19:04:37.856Z,10.37
2018-11-25T19:07:09.152Z,9.97
2018-11-25T19:09:40.203Z,10.00
2018-11-25T19:12:11.219Z,9.43
2018-11-25T19:14:42.287Z,10.03
2018-11-25T19:17:13.239Z,10.07
2018-11-25T19:19:44.527Z,10.20
2018-11-25T19:22:15.527Z,9.87
2018-11-25T19:24:46.714Z,10.00
2018-11-25T19:27:17.652Z,10.93
2018-11-25T19:29:48.556Z,9.80
2018-11-25T19:32:19.439Z,9.83
2018-11-25T19:34:50.451Z,10.30
2018-11-25T19:37:21.509Z,10.40
2018-11-25T19:39:52.459Z,10.93
2018-11-25T19:42:23.760Z,11.20
2018-11-25T19:44:54.864Z,10.80
2018-11-25T19:47:26.161Z,11.60
2018-11-25T19:49:57.236Z,10.97
2018-11-25T19:52:28.246Z,10.60
2018-11-25T19:54:59.120Z,10.80
2018-11-25T19:57:30.211Z,11.47
2018-11-25T20:00:01.165Z,11.83
2018-11-25T20:02:32.123Z,11.77
2018-11-25T20:05:03.307Z,11.53
2018-11-25T20:07:34.526Z,11.13
2018-11-25T20:10:05.697Z,11.77
2018-11-25T20:12:43.122Z,11.90
2018-11-25T20:15:18.296Z,11.27
2018-11-25T20:17:54.501Z,12.07
2018-11-25T20:20:23.583Z,11.70
2018-11-25T20:22:55.036Z,11.63
2018-11-25T20:25:26.228Z,11.63
2018-11-25T20:27:58.016Z,11.27
2018-11-25T20:30:33.303Z,11.60
2018-11-25T20:33:21.473Z,11.60
2018-11-25T20:35:52.352Z,11.13
2018-11-25T20:38:40.181Z,12.20
2018-11-25T20:41:11.239Z,11.70
2018-11-25T20:43:42.135Z,11.37
2018-11-25T20:46:30.488Z,11.47
2018-11-25T20:49:01.695Z,10.83
2018-11-25T20:51:50.058Z,11.70
2018-11-25T20:54:21.120Z,11.63
2018-11-25T20:56:52.485Z,10.80
2018-11-25T20:59:23.342Z,10.77
2018-11-25T21:01:54.293Z,11.80
2018-11-25T21:04:25.342Z,11.50
2018-11-25T21:06:56.340Z,11.13
2018-11-25T21:09:27.266Z,10.07
2018-11-25T21:11:58.249Z,10.87
2018-11-25T21:14:29.394Z,10.17
2018-11-25T21:17:00.243Z,10.63
2018-11-25T21:19:31.229Z,10.03
2018-11-25T21:22:02.891Z,10.50
2018-11-25T21:24:33.866Z,10.40
2018-11-25T21:27:05.015Z,11.10
2018-11-25T21:29:36.212Z,10.23
2018-11-25T21:32:07.444Z,10.03
2018-11-25T21:34:38.616Z,10.43
2018-11-25T21:37:09.708Z,9.93
2018-11-25T21:39:40.751Z,10.23
2018-11-25T21:42:12.062Z,9.87
2018-11-25T21:44:43.224Z,10.43
2018-11-25T21:47:14.217Z,9.47
2018-11-25T21:49:45.069Z,9.43
2018-11-25T21:52:15.934Z,9.17
2018-11-25T21:54:46.899Z,8.87
2018-11-25T21:57:17.853Z,9.47
2018-11-25T21:59:49.115Z,9.53
2018-11-25T22:02:20.363Z,9.10
2018-11-25T22:04:51.368Z,8.73
2018-11-25T22:07:22.236Z,9.03
2018-11-25T22:09:53.448Z,9.07
2018-11-25T22:12:24.376Z,8.60
2018-11-25T22:14:55.452Z,8.87
2018-11-25T22:17:26.476Z,8.60
2018-11-25T22:19:57.382Z,7.87
2018-11-25T22:22:28.305Z,8.67
2018-11-25T22:25:00.041Z,8.47
2018-11-25T22:27:32.891Z,8.67
2018-11-25T22:30:03.464Z,9.03
2018-11-25T22:32:34.412Z,8.77
2018-11-25T22:35:06.185Z,7.70
2018-11-25T22:37:37.119Z,8.70
2018-11-25T22:40:10.856Z,8.57
2018-11-25T22:42:43.117Z,8.30
2018-11-25T22:45:18.256Z,8.80
2018-11-25T22:47:49.425Z,9.13
2018-11-25T22:50:27.642Z,9.13
2018-11-25T22:52:55.630Z,8.43
2018-11-25T22:55:27.588Z,8.87
2018-11-25T22:57:58.654Z,9.17
2018-11-25T23:00:37.995Z,8.57
2018-11-25T23:03:09.741Z,8.90
2018-11-25T23:06:33.995Z,9.53
2018-11-25T23:09:06.199Z,9.73
2018-11-25T23:11:37.295Z,8.70
2018-11-25T23:14:08.498Z,9.43
2018-11-25T23:16:39.440Z,9.70
2018-11-25T23:19:10.364Z,9.97
2018-11-25T23:21:41.424Z,11.03
2018-11-25T23:24:12.346Z,10.03
2018-11-25T23:26:43.259Z,9.97
2018-11-25T23:29:14.336Z,10.27
2018-11-25T23:31:45.318Z,10.60
2018-11-25T23:34:16.522Z,10.33
2018-11-25T23:36:47.619Z,10.27
2018-11-25T23:39:18.592Z,11.00
2018-11-25T23:41:49.668Z,10.83
2018-11-25T23:44:20.801Z,10.70
2018-11-25T23:46:51.842Z,11.33
2018-11-25T23:49:23.331Z,11.37
2018-11-25T23:51:54.464Z,11.87
2018-11-25T23:54:25.784Z,12.00
2018-11-25T23:56:56.769Z,10.97
2018-11-25T23:59:27.820Z,11.47
